Pagrindinis puslapis
METAR-TAF:

METAR-TAF

Oro uostai :

Akaba, Jordanija

platuma: 29-38N, ilguma: 035-01E, Aukštis: 53 m

Dabartinis oras

Ataskaita buvo paskelbta 41 minutes, ne 15:00 UTC
Vėjas 12 kt iš Šiaurės Vakarų
Temperatūra 35°C
Drėgmė 42%
Slėgis 1007 hPa
Matomumas 10 km arba daugiau
nėra debesų žemiau 1500 m ir nėra kamuolinių lietaus debesų

METAR: OJAQ 231500Z 32012KT CAVOK 35/20 Q1007 NOSIG

Laikas: 18:41 (15:41 UTC)

Prognozė

Ataskaita buvo paskelbta 4 valandos ir 41 minutes, ne 11:00 UTC
Prognozė galioja nuo 23 metu 12 UTC su 24 metu 18 UTC
Vėjas 12 kt iš Šiaurės
Matomumas: 7000 m
Mažai debesys ne aukštis 3500 ft
Laikinai
nuo 24 metu 00 UTC su 24 metu 12 UTC
Su prošvaistėmis ne aukštis 3500 ft

TAF: OJAQ 231100Z 2312/2418 35012KT 7000 FEW035 TEMPO 2400/2412 BKN035

Orai ataskaitas ir orų prognozės (METAR, TAF).

turimą stotys yra geltonos ir raudonos taškus žemėlapyje.

Perkelti pele per norėdami pamatyti stoties vardą.

Tada spustelėkite, norėdami matyti oro stebėjimo ir prognozės.

Norėdami pakeisti žemėlapį: spustelėkite ant žalios mygtukų su juodo kryžiaus žemyn,; žalią mygtuką su brūkšneliu, jei norite nutolinti; arba žalių rodyklių gretimoms žemėlapius.


METAR-TAF: